createdAt,value
2022-10-11T00:01:35.931Z,69.65
2022-10-11T00:06:39.112Z,70.03
2022-10-11T00:11:43.351Z,70.29
2022-10-11T00:16:46.254Z,69.95
2022-10-11T00:21:49.153Z,70.16
2022-10-11T00:26:52.085Z,69.89
2022-10-11T00:31:55.095Z,69.71
2022-10-11T00:36:58.042Z,69.44
2022-10-11T00:42:01.075Z,69.22
2022-10-11T00:47:10.608Z,68.94
2022-10-11T00:52:40.657Z,69.23
2022-10-11T00:57:48.664Z,69.35
2022-10-11T01:02:51.802Z,69.47
2022-10-11T01:07:54.793Z,69.31
2022-10-11T01:13:39.212Z,69.07
2022-10-11T01:18:50.242Z,68.70
2022-10-11T01:24:28.381Z,68.88
2022-10-11T01:30:17.969Z,69.00
2022-10-11T01:35:38.337Z,68.92
2022-10-11T01:40:53.257Z,69.05
2022-10-11T01:45:59.234Z,69.04
2022-10-11T01:51:04.091Z,69.21
2022-10-11T01:56:47.577Z,69.27
2022-10-11T02:02:41.835Z,68.73
2022-10-11T02:07:56.964Z,68.91
2022-10-11T02:13:22.709Z,69.08
2022-10-11T02:18:33.333Z,69.17
2022-10-11T02:23:44.206Z,69.08
2022-10-11T02:28:50.476Z,69.02
2022-10-11T02:34:28.412Z,69.16
2022-10-11T02:39:56.064Z,69.07
2022-10-11T02:45:08.111Z,69.03
2022-10-11T02:50:13.612Z,68.91
2022-10-11T02:55:16.654Z,68.83
2022-10-11T03:00:19.774Z,69.10
2022-10-11T03:05:22.794Z,69.26
2022-10-11T03:10:25.745Z,69.33
2022-10-11T03:15:29.856Z,69.41
2022-10-11T03:20:32.797Z,69.60
2022-10-11T03:25:35.746Z,69.70
2022-10-11T03:30:38.680Z,70.08
2022-10-11T03:35:45.034Z,70.36
2022-10-11T03:40:51.276Z,70.75
2022-10-11T03:45:57.056Z,71.25
2022-10-11T03:51:00.882Z,71.53
2022-10-11T03:56:08.261Z,71.61
2022-10-11T04:01:11.668Z,71.67
2022-10-11T04:06:14.634Z,71.77
2022-10-11T04:11:17.628Z,71.85
2022-10-11T04:16:20.549Z,71.82
2022-10-11T04:21:23.462Z,71.86
2022-10-11T04:26:26.829Z,72.11
2022-10-11T04:31:29.727Z,72.25
2022-10-11T04:36:34.132Z,72.47
2022-10-11T04:41:37.073Z,72.33
2022-10-11T04:46:40.086Z,72.51
2022-10-11T04:51:43.443Z,72.35
2022-10-11T04:56:46.329Z,72.29
2022-10-11T05:01:49.316Z,72.11
2022-10-11T05:06:52.436Z,72.08
2022-10-11T05:11:55.340Z,72.51
2022-10-11T05:16:58.268Z,72.67
2022-10-11T05:22:01.161Z,72.92
2022-10-11T05:27:04.145Z,72.94
2022-10-11T05:32:07.083Z,72.93
2022-10-11T05:37:10.038Z,72.79
2022-10-11T05:42:13.494Z,72.53
2022-10-11T05:47:16.363Z,72.48
2022-10-11T05:52:21.674Z,72.68
2022-10-11T05:57:24.636Z,72.64
2022-10-11T06:02:27.605Z,72.44
2022-10-11T06:07:30.828Z,72.42
2022-10-11T06:12:33.900Z,72.17
2022-10-11T06:17:37.332Z,72.22
2022-10-11T06:22:40.557Z,72.39
2022-10-11T06:27:43.504Z,72.73
2022-10-11T06:32:46.415Z,72.90
2022-10-11T06:37:49.325Z,72.92
2022-10-11T06:42:52.476Z,72.65
2022-10-11T06:47:55.495Z,72.75
2022-10-11T06:52:59.467Z,72.83
2022-10-11T06:58:02.409Z,72.75
2022-10-11T07:03:05.448Z,72.69
2022-10-11T07:08:08.367Z,72.87
2022-10-11T07:13:16.262Z,72.76
2022-10-11T07:18:20.241Z,72.64
2022-10-11T07:23:24.388Z,72.74
2022-10-11T07:28:28.989Z,72.58
2022-10-11T07:33:32.701Z,72.64
2022-10-11T07:38:38.598Z,72.76
2022-10-11T07:43:43.672Z,72.56
2022-10-11T07:48:50.229Z,72.18
2022-10-11T07:53:56.226Z,71.97
2022-10-11T07:59:05.555Z,72.00
2022-10-11T08:04:08.530Z,72.04
2022-10-11T08:09:12.325Z,72.33
2022-10-11T08:14:15.230Z,72.35
2022-10-11T08:19:18.957Z,71.91
2022-10-11T08:24:21.890Z,71.55
2022-10-11T08:29:25.140Z,71.59
2022-10-11T08:34:28.107Z,71.87
2022-10-11T08:39:31.426Z,71.78
2022-10-11T08:45:22.949Z,71.98
2022-10-11T08:50:23.625Z,71.50
2022-10-11T08:55:48.537Z,71.41
2022-10-11T09:00:56.748Z,71.18
2022-10-11T09:06:05.687Z,70.75
2022-10-11T09:11:45.326Z,70.14
2022-10-11T09:16:57.307Z,70.41
2022-10-11T09:22:30.777Z,70.40
2022-10-11T09:28:04.108Z,70.42
2022-10-11T09:33:32.472Z,70.06
2022-10-11T09:38:52.333Z,70.14
2022-10-11T09:43:55.364Z,70.21
2022-10-11T09:49:00.249Z,70.26
2022-10-11T09:54:06.597Z,70.82
2022-10-11T09:59:35.295Z,71.00
2022-10-11T10:04:57.446Z,71.53
2022-10-11T10:10:26.017Z,71.36
2022-10-11T10:15:32.511Z,71.04
2022-10-11T10:20:36.803Z,70.83
2022-10-11T10:25:43.480Z,71.04
2022-10-11T10:30:57.072Z,70.99
2022-10-11T10:36:39.443Z,70.81
2022-10-11T10:41:42.487Z,70.49
2022-10-11T10:47:16.827Z,70.30
2022-10-11T10:52:56.693Z,70.62
2022-10-11T10:58:23.298Z,71.21
2022-10-11T11:03:55.998Z,70.90
2022-10-11T11:09:28.109Z,71.00
2022-10-11T11:14:31.001Z,70.58
2022-10-11T11:20:14.337Z,70.22
2022-10-11T11:25:31.095Z,69.69
2022-10-11T11:31:09.012Z,69.36
2022-10-11T11:36:28.051Z,68.52
2022-10-11T11:41:44.548Z,69.08
2022-10-11T11:47:20.822Z,68.82
2022-10-11T11:52:33.967Z,67.02
2022-10-11T11:58:07.163Z,65.94
2022-10-11T12:03:17.305Z,66.13
2022-10-11T12:08:32.064Z,65.58
2022-10-11T12:13:40.952Z,66.18
2022-10-11T12:18:59.184Z,65.65
2022-10-11T12:24:12.070Z,65.09
2022-10-11T12:29:25.933Z,65.47
2022-10-11T12:34:35.306Z,64.71
2022-10-11T12:39:55.263Z,63.88
2022-10-11T12:45:13.375Z,63.00
2022-10-11T12:50:31.172Z,62.13
2022-10-11T12:56:24.154Z,62.01
2022-10-11T13:01:35.100Z,62.08
2022-10-11T13:06:54.927Z,61.42
2022-10-11T13:12:18.391Z,58.44
2022-10-11T13:17:32.311Z,57.56
2022-10-11T13:22:40.575Z,57.94
2022-10-11T13:27:44.130Z,58.32
2022-10-11T13:32:47.251Z,58.49
2022-10-11T13:37:50.471Z,57.77
2022-10-11T13:42:55.421Z,57.27
2022-10-11T13:47:58.480Z,57.16
2022-10-11T13:53:23.911Z,57.42
2022-10-11T13:58:47.778Z,57.33
2022-10-11T14:04:01.921Z,57.11
2022-10-11T14:09:05.198Z,56.71
2022-10-11T14:14:40.678Z,55.80
2022-10-11T14:19:46.833Z,55.95
2022-10-11T14:24:49.811Z,56.69
2022-10-11T14:30:19.951Z,56.54
2022-10-11T14:35:18.281Z,56.18
2022-10-11T14:40:29.614Z,55.78
2022-10-11T14:45:32.578Z,56.28
2022-10-11T14:50:47.866Z,55.74
2022-10-11T14:55:51.245Z,55.84
2022-10-11T15:00:54.134Z,56.56
2022-10-11T15:05:57.278Z,56.68
2022-10-11T15:11:00.248Z,56.72
2022-10-11T15:16:03.591Z,56.35
2022-10-11T15:21:07.568Z,56.23
2022-10-11T15:26:18.684Z,56.80
2022-10-11T15:31:22.131Z,57.12
2022-10-11T15:36:25.557Z,57.37
2022-10-11T15:41:28.632Z,57.69
2022-10-11T15:46:31.575Z,58.13
2022-10-11T15:51:34.511Z,58.30
2022-10-11T15:56:37.415Z,58.69
2022-10-11T16:01:40.815Z,59.45
2022-10-11T16:06:43.837Z,60.24
2022-10-11T16:11:46.797Z,61.02
2022-10-11T16:16:49.862Z,61.73
2022-10-11T16:21:52.793Z,61.98
2022-10-11T16:26:55.747Z,62.07
2022-10-11T16:31:58.633Z,62.19
2022-10-11T16:37:02.072Z,62.32
2022-10-11T16:42:07.545Z,62.79
2022-10-11T16:47:10.641Z,63.01
2022-10-11T16:52:14.374Z,62.98
2022-10-11T16:57:20.007Z,63.16
2022-10-11T17:02:32.126Z,63.62
2022-10-11T17:07:35.711Z,63.58
2022-10-11T17:12:38.969Z,63.63
2022-10-11T17:17:41.915Z,63.94
2022-10-11T17:22:44.982Z,64.24
2022-10-11T17:27:48.069Z,64.22
2022-10-11T17:32:52.359Z,64.31
2022-10-11T17:37:55.267Z,64.44
2022-10-11T17:42:58.333Z,64.30
2022-10-11T17:48:04.200Z,64.17
2022-10-11T17:53:07.130Z,64.41
2022-10-11T17:58:11.314Z,64.59
2022-10-11T18:03:14.250Z,64.72
2022-10-11T18:08:20.450Z,64.72
2022-10-11T18:13:23.460Z,65.12
2022-10-11T18:18:27.468Z,65.31
2022-10-11T18:23:31.186Z,65.23
2022-10-11T18:28:34.002Z,64.77
2022-10-11T18:33:38.080Z,64.59
2022-10-11T18:38:46.557Z,64.80
2022-10-11T18:43:53.980Z,64.98
2022-10-11T18:48:58.763Z,65.13
2022-10-11T18:54:02.865Z,64.98
2022-10-11T18:59:07.927Z,65.30
2022-10-11T19:04:15.898Z,65.45
2022-10-11T19:09:26.187Z,65.35
2022-10-11T19:14:30.385Z,65.36
2022-10-11T19:19:34.119Z,65.50
2022-10-11T19:24:37.107Z,65.72
2022-10-11T19:29:40.051Z,65.96
2022-10-11T19:34:42.971Z,65.96
2022-10-11T19:39:45.906Z,65.69
2022-10-11T19:44:48.810Z,65.61
2022-10-11T19:49:51.759Z,65.14
2022-10-11T19:54:54.674Z,65.03
2022-10-11T19:59:57.778Z,64.99
2022-10-11T20:05:00.698Z,65.07
2022-10-11T20:10:04.573Z,65.38
2022-10-11T20:15:07.979Z,65.66
2022-10-11T20:20:11.073Z,65.89
2022-10-11T20:25:14.030Z,66.51
2022-10-11T20:30:17.095Z,66.40
2022-10-11T20:35:20.013Z,66.27
2022-10-11T20:40:22.915Z,65.74
2022-10-11T20:45:25.825Z,65.64
2022-10-11T20:50:28.752Z,65.67
2022-10-11T20:55:32.012Z,65.98
2022-10-11T21:00:34.914Z,65.85
2022-10-11T21:05:37.838Z,65.94
2022-10-11T21:10:41.094Z,65.89
2022-10-11T21:15:44.031Z,65.93
2022-10-11T21:20:47.400Z,66.01
2022-10-11T21:25:50.297Z,66.13
2022-10-11T21:30:53.254Z,66.17
2022-10-11T21:35:56.193Z,66.26
2022-10-11T21:40:59.485Z,66.07
2022-10-11T21:46:22.567Z,66.16
2022-10-11T21:51:32.959Z,66.47
2022-10-11T21:56:36.204Z,66.25
2022-10-11T22:01:39.622Z,66.41
2022-10-11T22:06:42.595Z,66.65
2022-10-11T22:11:45.647Z,66.58
2022-10-11T22:16:48.567Z,66.56
2022-10-11T22:21:51.538Z,66.61
2022-10-11T22:26:54.459Z,66.87
2022-10-11T22:31:57.402Z,66.63
2022-10-11T22:37:00.313Z,66.21
2022-10-11T22:42:03.648Z,66.38
2022-10-11T22:47:06.574Z,66.07
2022-10-11T22:52:09.496Z,66.05
2022-10-11T22:57:12.426Z,66.03
2022-10-11T23:02:15.333Z,66.25
2022-10-11T23:07:18.247Z,66.04
2022-10-11T23:12:21.265Z,66.11
2022-10-11T23:17:24.315Z,66.18
2022-10-11T23:22:27.224Z,66.40
2022-10-11T23:27:30.909Z,66.64
2022-10-11T23:32:35.649Z,66.98
2022-10-11T23:37:39.003Z,66.29
2022-10-11T23:42:42.301Z,65.88
2022-10-11T23:47:45.207Z,65.52
2022-10-11T23:52:48.092Z,65.56
2022-10-11T23:57:51.050Z,65.67
